createdAt,value
2022-11-02T00:01:23.049Z,56.68
2022-11-02T00:03:24.793Z,56.48
2022-11-02T00:05:26.966Z,56.04
2022-11-02T00:07:28.551Z,56.45
2022-11-02T00:09:30.264Z,56.37
2022-11-02T00:11:31.909Z,56.49
2022-11-02T00:13:33.601Z,56.30
2022-11-02T00:15:36.368Z,56.20
2022-11-02T00:17:38.904Z,56.17
2022-11-02T00:19:40.555Z,56.82
2022-11-02T00:21:42.319Z,56.76
2022-11-02T00:23:44.194Z,56.79
2022-11-02T00:25:48.032Z,56.59
2022-11-02T00:27:49.530Z,56.97
2022-11-02T00:29:51.176Z,56.47
2022-11-02T00:31:53.100Z,56.76
2022-11-02T00:33:54.727Z,56.78
2022-11-02T00:35:56.484Z,56.89
2022-11-02T00:37:58.066Z,56.52
2022-11-02T00:39:59.679Z,56.78
2022-11-02T00:42:01.453Z,57.24
2022-11-02T00:44:03.088Z,56.99
2022-11-02T00:46:04.974Z,57.30
2022-11-02T00:48:07.086Z,57.25
2022-11-02T00:50:09.394Z,57.36
2022-11-02T00:52:11.078Z,56.92
2022-11-02T00:54:12.706Z,57.27
2022-11-02T00:56:14.273Z,57.01
2022-11-02T00:58:16.114Z,56.87
2022-11-02T01:00:18.149Z,57.45
2022-11-02T01:02:19.881Z,57.65
2022-11-02T01:04:21.594Z,57.69
2022-11-02T01:06:23.851Z,57.55
2022-11-02T01:08:25.561Z,57.73
2022-11-02T01:10:27.336Z,58.28
2022-11-02T01:12:28.910Z,59.01
2022-11-02T01:14:30.679Z,59.80
2022-11-02T01:16:32.918Z,60.25
2022-11-02T01:18:35.278Z,60.02
2022-11-02T01:20:36.944Z,59.96
2022-11-02T01:22:38.859Z,60.65
2022-11-02T01:24:40.671Z,60.79
2022-11-02T01:26:42.396Z,60.57
2022-11-02T01:28:44.047Z,60.20
2022-11-02T01:30:48.628Z,59.71
2022-11-02T01:32:50.208Z,59.53
2022-11-02T01:34:51.826Z,59.03
2022-11-02T01:36:53.447Z,58.82
2022-11-02T01:38:55.956Z,58.25
2022-11-02T01:40:57.770Z,57.90
2022-11-02T01:42:59.406Z,58.15
2022-11-02T01:45:01.282Z,57.39
2022-11-02T01:47:20.008Z,57.31
2022-11-02T01:49:22.408Z,57.36
2022-11-02T01:51:30.237Z,57.83
2022-11-02T01:53:34.115Z,57.57
2022-11-02T01:55:35.610Z,57.81
2022-11-02T01:57:38.309Z,58.42
2022-11-02T01:59:57.540Z,58.51
2022-11-02T02:01:59.565Z,59.78
2022-11-02T02:04:01.473Z,59.42
2022-11-02T02:06:07.100Z,59.11
2022-11-02T02:08:10.026Z,58.73
2022-11-02T02:10:12.001Z,58.95
2022-11-02T02:12:14.141Z,59.08
2022-11-02T02:14:17.796Z,58.92
2022-11-02T02:16:37.280Z,58.93
2022-11-02T02:19:01.163Z,58.50
2022-11-02T02:21:21.288Z,58.65
2022-11-02T02:23:45.241Z,58.61
2022-11-02T02:26:20.477Z,59.25
2022-11-02T02:28:28.083Z,59.35
2022-11-02T02:30:32.640Z,58.94
2022-11-02T02:32:37.786Z,58.87
2022-11-02T02:34:49.946Z,58.55
2022-11-02T02:37:19.804Z,58.32
2022-11-02T02:40:06.902Z,58.95
2022-11-02T02:42:21.943Z,58.88
2022-11-02T02:44:24.122Z,59.26
2022-11-02T02:46:25.770Z,58.79
2022-11-02T02:48:27.459Z,58.91
2022-11-02T02:50:53.834Z,59.88
2022-11-02T02:52:56.477Z,60.37
2022-11-02T02:54:59.497Z,60.90
2022-11-02T02:57:09.565Z,60.36
2022-11-02T02:59:43.978Z,60.24
2022-11-02T03:01:46.265Z,59.90
2022-11-02T03:03:48.352Z,60.21
2022-11-02T03:06:04.857Z,60.58
2022-11-02T03:08:12.655Z,60.36
2022-11-02T03:10:35.878Z,60.57
2022-11-02T03:12:58.824Z,60.57
2022-11-02T03:15:00.401Z,61.46
2022-11-02T03:17:11.247Z,62.34
2022-11-02T03:19:21.420Z,63.45
2022-11-02T03:21:34.480Z,63.45
2022-11-02T03:23:40.058Z,62.74
2022-11-02T03:26:12.609Z,61.83
2022-11-02T03:28:29.442Z,61.43
2022-11-02T03:30:34.809Z,61.12
2022-11-02T03:32:42.473Z,60.97
2022-11-02T03:34:48.802Z,60.73
2022-11-02T03:37:15.539Z,60.55
2022-11-02T03:39:20.474Z,60.28
2022-11-02T03:41:23.279Z,60.34
2022-11-02T03:43:25.386Z,60.29
2022-11-02T03:45:30.628Z,60.55
2022-11-02T03:47:34.364Z,60.44
2022-11-02T03:49:36.223Z,60.75
2022-11-02T03:51:38.942Z,61.29
2022-11-02T03:54:17.961Z,61.60
2022-11-02T03:56:25.880Z,61.70
2022-11-02T03:58:27.656Z,62.02
2022-11-02T04:00:35.214Z,62.06
2022-11-02T04:02:38.013Z,62.35
2022-11-02T04:04:52.900Z,62.55
2022-11-02T04:06:55.117Z,61.99
2022-11-02T04:08:56.715Z,61.88
2022-11-02T04:11:17.176Z,61.83
2022-11-02T04:13:37.645Z,61.62
2022-11-02T04:15:39.279Z,61.57
2022-11-02T04:17:59.369Z,61.49
2022-11-02T04:20:01.222Z,61.55
2022-11-02T04:22:21.444Z,61.77
2022-11-02T04:24:41.223Z,61.96
2022-11-02T04:26:42.955Z,62.15
2022-11-02T04:28:44.595Z,62.70
2022-11-02T04:30:46.285Z,62.54
2022-11-02T04:33:09.023Z,62.47
2022-11-02T04:35:10.695Z,61.99
2022-11-02T04:39:37.418Z,61.63
2022-11-02T04:41:42.167Z,61.54
2022-11-02T04:43:44.468Z,61.38
2022-11-02T04:45:46.145Z,61.26
2022-11-02T04:47:47.804Z,61.29
2022-11-02T04:49:49.390Z,61.30
2022-11-02T04:51:50.943Z,61.45
2022-11-02T04:53:54.297Z,61.38
2022-11-02T04:55:55.904Z,61.61
2022-11-02T04:57:57.511Z,61.56
2022-11-02T04:59:59.179Z,62.03
2022-11-02T05:02:00.830Z,62.34
2022-11-02T05:04:02.563Z,62.42
2022-11-02T05:06:04.369Z,62.49
2022-11-02T05:08:06.327Z,62.70
2022-11-02T05:10:09.251Z,62.80
2022-11-02T05:12:10.892Z,62.80
2022-11-02T05:14:12.506Z,62.95
2022-11-02T05:16:16.120Z,62.86
2022-11-02T05:18:19.251Z,62.67
2022-11-02T05:20:21.020Z,62.59
2022-11-02T05:22:22.682Z,62.72
2022-11-02T05:24:24.276Z,62.28
2022-11-02T05:26:25.890Z,62.20
2022-11-02T05:28:28.753Z,61.97
2022-11-02T05:30:30.340Z,62.11
2022-11-02T05:32:32.235Z,62.07
2022-11-02T05:34:34.017Z,62.26
2022-11-02T05:36:35.585Z,62.13
2022-11-02T05:38:37.212Z,62.48
2022-11-02T05:40:40.921Z,61.84
2022-11-02T05:42:42.479Z,61.21
2022-11-02T05:44:44.123Z,61.18
2022-11-02T05:46:45.940Z,61.23
2022-11-02T05:48:47.526Z,61.07
2022-11-02T05:50:49.423Z,60.75
2022-11-02T05:52:51.084Z,60.72
2022-11-02T05:54:52.647Z,60.87
2022-11-02T05:56:54.230Z,60.76
2022-11-02T05:58:56.018Z,60.96
2022-11-02T06:01:02.013Z,60.70
2022-11-02T06:03:04.088Z,60.59
2022-11-02T06:05:06.484Z,60.38
2022-11-02T06:07:08.121Z,60.29
2022-11-02T06:09:09.783Z,60.28
2022-11-02T06:11:12.804Z,60.06
2022-11-02T06:13:14.499Z,59.43
2022-11-02T06:15:16.519Z,59.45
2022-11-02T06:17:18.141Z,58.97
2022-11-02T06:19:19.717Z,58.82
2022-11-02T06:21:21.344Z,59.02
2022-11-02T06:23:22.963Z,58.78
2022-11-02T06:25:24.698Z,58.93
2022-11-02T06:27:26.281Z,58.59
2022-11-02T06:29:27.908Z,58.41
2022-11-02T06:31:29.475Z,57.61
2022-11-02T06:33:31.235Z,57.93
2022-11-02T06:35:32.895Z,57.82
2022-11-02T06:37:34.960Z,57.56
2022-11-02T06:41:43.063Z,57.09
2022-11-02T06:43:44.670Z,56.96
2022-11-02T06:45:46.995Z,56.98
2022-11-02T06:47:49.077Z,57.42
2022-11-02T06:49:51.991Z,56.95
2022-11-02T06:51:53.890Z,57.29
2022-11-02T06:53:55.495Z,56.95
2022-11-02T06:55:58.405Z,56.15
2022-11-02T06:58:00.104Z,55.74
2022-11-02T07:00:05.016Z,55.54
2022-11-02T07:02:06.777Z,55.84
2022-11-02T07:04:08.560Z,55.82
2022-11-02T07:06:14.160Z,55.50
2022-11-02T07:08:16.191Z,55.05
2022-11-02T07:10:17.784Z,54.71
2022-11-02T07:12:22.988Z,54.70
2022-11-02T07:14:24.918Z,54.92
2022-11-02T07:16:26.600Z,55.09
2022-11-02T07:18:28.245Z,54.91
2022-11-02T07:20:30.480Z,54.59
2022-11-02T07:22:32.162Z,54.47
2022-11-02T07:24:33.751Z,53.74
2022-11-02T07:26:35.911Z,53.70
2022-11-02T07:28:38.435Z,53.56
2022-11-02T07:30:40.200Z,53.57
2022-11-02T07:32:42.659Z,53.09
2022-11-02T07:34:44.256Z,52.81
2022-11-02T07:36:46.251Z,53.08
2022-11-02T07:38:47.828Z,52.40
2022-11-02T07:40:51.127Z,52.79
2022-11-02T07:42:54.099Z,52.38
2022-11-02T07:44:55.718Z,52.16
2022-11-02T07:46:57.521Z,51.78
2022-11-02T07:48:59.255Z,51.49
2022-11-02T07:51:01.257Z,51.23
2022-11-02T07:53:03.450Z,51.36
2022-11-02T07:55:05.536Z,51.32
2022-11-02T07:57:07.159Z,51.01
2022-11-02T07:59:10.711Z,51.37
2022-11-02T08:01:12.478Z,51.25
2022-11-02T08:03:14.909Z,51.12
2022-11-02T08:05:16.726Z,51.18
2022-11-02T08:07:18.292Z,51.05
2022-11-02T08:09:19.977Z,50.83
2022-11-02T08:11:21.755Z,50.60
2022-11-02T08:13:25.990Z,50.31
2022-11-02T08:15:27.599Z,49.78
2022-11-02T08:17:29.267Z,49.54
2022-11-02T08:19:30.902Z,48.95
2022-11-02T08:21:32.520Z,48.63
2022-11-02T08:23:34.093Z,48.22
2022-11-02T08:25:37.661Z,48.63
2022-11-02T08:27:39.349Z,48.03
2022-11-02T08:29:41.172Z,47.94
2022-11-02T08:31:42.740Z,47.95
2022-11-02T08:33:44.965Z,47.40
2022-11-02T08:35:47.722Z,47.74
2022-11-02T08:37:55.997Z,47.54
2022-11-02T08:39:57.646Z,47.88
2022-11-02T08:41:59.257Z,47.80
2022-11-02T08:44:01.128Z,47.34
2022-11-02T08:46:18.746Z,46.93
2022-11-02T08:48:20.444Z,46.52
2022-11-02T08:50:23.253Z,45.98
2022-11-02T08:52:24.878Z,45.87
2022-11-02T08:54:26.502Z,45.69
2022-11-02T08:56:28.800Z,45.73
2022-11-02T08:58:30.367Z,45.21
2022-11-02T09:00:33.508Z,44.42
2022-11-02T09:02:35.329Z,44.64
2022-11-02T09:04:36.985Z,44.75
2022-11-02T09:06:38.552Z,44.56
2022-11-02T09:08:40.180Z,44.56
2022-11-02T09:10:41.751Z,44.16
2022-11-02T09:12:43.369Z,43.69
2022-11-02T09:14:45.006Z,43.74
2022-11-02T09:16:46.580Z,43.71
2022-11-02T09:18:48.171Z,43.86
2022-11-02T09:20:51.556Z,43.21
2022-11-02T09:22:53.286Z,42.86
2022-11-02T09:24:54.847Z,42.54
2022-11-02T09:26:56.478Z,42.12
2022-11-02T09:28:58.031Z,42.61
2022-11-02T09:30:59.633Z,42.46
2022-11-02T09:33:03.982Z,42.33
2022-11-02T09:35:08.650Z,41.85
2022-11-02T09:37:10.230Z,41.31
2022-11-02T09:39:11.892Z,41.78
2022-11-02T09:41:35.049Z,42.04
2022-11-02T09:43:59.776Z,41.26
2022-11-02T09:46:07.152Z,40.79
2022-11-02T09:48:19.886Z,40.85
2022-11-02T09:50:34.801Z,41.27
2022-11-02T09:52:38.106Z,41.35
2022-11-02T09:54:46.035Z,41.64
2022-11-02T09:56:48.219Z,41.25
2022-11-02T09:58:56.125Z,40.95
2022-11-02T10:01:01.907Z,40.85
2022-11-02T10:03:42.837Z,40.42
2022-11-02T10:05:53.123Z,40.21
2022-11-02T10:08:01.684Z,40.45
2022-11-02T10:10:05.852Z,40.25
2022-11-02T10:12:15.210Z,39.47
2022-11-02T10:14:28.751Z,39.76
2022-11-02T10:16:35.311Z,39.71
2022-11-02T10:18:37.942Z,39.40
2022-11-02T10:20:44.659Z,39.32
2022-11-02T10:22:47.892Z,39.25
2022-11-02T10:24:50.413Z,39.48
2022-11-02T10:26:56.173Z,39.35
2022-11-02T10:29:04.923Z,39.14
2022-11-02T10:31:27.512Z,39.53
2022-11-02T10:33:30.479Z,39.46
2022-11-02T10:38:31.574Z,39.01
2022-11-02T10:40:45.305Z,38.44
2022-11-02T10:42:59.400Z,37.98
2022-11-02T10:45:16.640Z,37.12
2022-11-02T10:47:20.561Z,37.35
2022-11-02T10:50:06.948Z,36.69
2022-11-02T10:52:16.248Z,36.52
2022-11-02T10:54:21.727Z,36.58
2022-11-02T10:56:32.775Z,36.75
2022-11-02T10:58:37.084Z,36.20
2022-11-02T11:00:39.089Z,35.72
2022-11-02T11:02:40.767Z,35.50
2022-11-02T11:04:43.042Z,36.04
2022-11-02T11:06:44.603Z,34.46
2022-11-02T11:08:53.659Z,33.42
2022-11-02T11:10:55.325Z,33.41
2022-11-02T11:12:57.120Z,33.30
2022-11-02T11:19:51.783Z,33.30
2022-11-02T11:21:53.515Z,32.82
2022-11-02T11:24:22.242Z,31.87
2022-11-02T11:26:28.452Z,31.34
2022-11-02T11:28:34.963Z,30.15
2022-11-02T11:33:01.722Z,29.05
2022-11-02T11:35:10.290Z,28.61
2022-11-02T11:37:15.156Z,29.05
2022-11-02T11:39:28.346Z,28.68
2022-11-02T11:41:31.481Z,28.67
2022-11-02T11:43:38.281Z,28.53
2022-11-02T11:45:39.925Z,28.20
2022-11-02T11:47:42.748Z,28.68
2022-11-02T11:52:17.856Z,28.02
2022-11-02T11:54:28.973Z,28.18
2022-11-02T11:56:30.648Z,28.52
2022-11-02T11:58:34.075Z,28.14
2022-11-02T12:00:35.716Z,28.21
2022-11-02T12:02:43.783Z,28.23
2022-11-02T12:04:46.254Z,28.59
2022-11-02T12:07:09.537Z,28.37
2022-11-02T12:09:42.221Z,28.58
2022-11-02T12:12:08.211Z,28.69
2022-11-02T12:14:31.350Z,28.79
2022-11-02T12:16:33.226Z,28.87
2022-11-02T12:18:49.879Z,29.01
2022-11-02T12:20:59.985Z,28.74
2022-11-02T12:23:29.150Z,28.75
2022-11-02T12:25:39.619Z,29.02
2022-11-02T12:27:57.139Z,29.14
2022-11-02T12:30:11.815Z,29.07
2022-11-02T12:32:42.269Z,29.03
2022-11-02T12:34:46.506Z,28.88
2022-11-02T12:37:32.762Z,29.15
2022-11-02T12:39:54.346Z,29.29
2022-11-02T12:42:02.681Z,29.26
2022-11-02T12:44:13.314Z,28.90
2022-11-02T12:46:42.214Z,29.02
2022-11-02T12:48:55.409Z,28.92
2022-11-02T12:51:13.284Z,29.00
2022-11-02T12:53:21.062Z,29.07
2022-11-02T12:55:26.277Z,28.89
2022-11-02T12:57:31.871Z,29.31
2022-11-02T12:59:34.845Z,29.21
2022-11-02T13:01:40.824Z,28.98
2022-11-02T13:04:18.096Z,29.13
2022-11-02T13:06:26.802Z,28.70
2022-11-02T13:08:47.759Z,28.92
2022-11-02T13:10:55.101Z,28.92
2022-11-02T13:13:00.361Z,29.10
2022-11-02T13:15:05.695Z,29.07
2022-11-02T13:17:33.812Z,29.16
2022-11-02T13:19:39.452Z,29.27
2022-11-02T13:21:45.101Z,29.07
2022-11-02T13:23:56.969Z,29.48
2022-11-02T13:26:04.043Z,29.25
2022-11-02T13:28:12.835Z,29.26
2022-11-02T13:30:16.888Z,29.17
2022-11-02T13:32:32.453Z,29.21
2022-11-02T13:34:38.074Z,29.61
2022-11-02T13:36:40.287Z,29.62
2022-11-02T13:38:49.496Z,29.35
2022-11-02T13:41:29.686Z,29.66
2022-11-02T13:43:53.892Z,29.92
2022-11-02T13:46:13.824Z,29.83
2022-11-02T13:48:28.793Z,29.64
2022-11-02T13:50:32.133Z,29.42
2022-11-02T13:52:37.994Z,29.67
2022-11-02T13:54:48.976Z,29.30
2022-11-02T13:56:56.193Z,29.17
2022-11-02T13:59:03.794Z,29.35
2022-11-02T14:01:08.024Z,29.44
2022-11-02T14:03:14.064Z,29.81
2022-11-02T14:05:31.577Z,29.83
2022-11-02T14:07:35.935Z,29.54
2022-11-02T14:09:42.804Z,29.79
2022-11-02T14:11:44.316Z,29.69
2022-11-02T14:13:54.906Z,29.61
2022-11-02T14:15:56.906Z,29.56
2022-11-02T14:18:11.391Z,29.91
2022-11-02T14:20:35.857Z,29.85
2022-11-02T14:22:37.411Z,29.89
2022-11-02T14:24:39.604Z,29.94
2022-11-02T14:26:54.710Z,30.17
2022-11-02T14:28:56.422Z,29.92
2022-11-02T14:31:21.595Z,30.33
2022-11-02T14:33:58.359Z,30.41
2022-11-02T14:36:35.392Z,30.67
2022-11-02T14:38:57.100Z,30.58
2022-11-02T14:41:26.221Z,30.33
2022-11-02T14:44:01.844Z,30.64
2022-11-02T14:46:34.431Z,30.75
2022-11-02T14:48:52.895Z,30.82
2022-11-02T14:51:18.423Z,31.08
2022-11-02T14:53:26.066Z,31.45
2022-11-02T14:55:30.553Z,31.50
2022-11-02T14:57:36.015Z,31.74
2022-11-02T14:59:40.568Z,31.78
2022-11-02T15:01:58.303Z,31.91
2022-11-02T15:04:07.049Z,32.48
2022-11-02T15:06:11.493Z,32.43
2022-11-02T15:08:17.429Z,32.75
2022-11-02T15:10:19.002Z,32.62
2022-11-02T15:12:31.940Z,33.16
2022-11-02T15:14:54.748Z,33.34
2022-11-02T15:16:56.582Z,33.43
2022-11-02T15:19:52.000Z,33.73
2022-11-02T15:21:53.740Z,33.69
2022-11-02T15:24:17.979Z,33.97
2022-11-02T15:26:23.621Z,34.10
2022-11-02T15:28:27.451Z,34.24
2022-11-02T15:30:29.702Z,34.37
2022-11-02T15:32:34.792Z,34.37
2022-11-02T15:34:46.480Z,34.64
2022-11-02T15:36:48.205Z,34.56
2022-11-02T15:38:51.407Z,34.57
2022-11-02T15:41:08.100Z,34.55
2022-11-02T15:43:29.921Z,34.64
2022-11-02T15:45:56.927Z,34.88
2022-11-02T15:48:09.797Z,35.24
2022-11-02T15:50:22.879Z,35.21
2022-11-02T15:52:40.141Z,35.40
2022-11-02T15:55:28.353Z,35.35
2022-11-02T15:57:52.820Z,35.60
2022-11-02T16:00:12.282Z,35.48
2022-11-02T16:02:19.978Z,35.60
2022-11-02T16:04:22.378Z,35.51
2022-11-02T16:06:26.387Z,35.79
2022-11-02T16:08:38.097Z,35.53
2022-11-02T16:10:40.904Z,35.66
2022-11-02T16:12:42.461Z,35.74
2022-11-02T16:14:56.091Z,35.88
2022-11-02T16:16:57.707Z,35.83
2022-11-02T16:18:59.340Z,35.82
2022-11-02T16:21:02.316Z,35.82
2022-11-02T16:23:05.240Z,35.92
2022-11-02T16:25:16.856Z,35.95
2022-11-02T16:27:18.493Z,35.83
2022-11-02T16:29:36.133Z,35.98
2022-11-02T16:31:38.067Z,36.08
2022-11-02T16:33:40.791Z,35.96
2022-11-02T16:35:42.422Z,36.10
2022-11-02T16:37:44.672Z,36.21
2022-11-02T16:39:47.708Z,36.24
2022-11-02T16:41:51.557Z,36.38
2022-11-02T16:43:53.503Z,36.26
2022-11-02T16:46:00.785Z,36.35
2022-11-02T16:48:04.691Z,36.33
2022-11-02T16:50:20.606Z,36.11
2022-11-02T16:52:24.196Z,36.30
2022-11-02T16:54:28.861Z,36.25
2022-11-02T16:56:32.315Z,36.26
2022-11-02T16:58:34.203Z,36.18
2022-11-02T17:00:36.390Z,36.25
2022-11-02T17:02:40.183Z,36.26
2022-11-02T17:04:43.088Z,36.13
2022-11-02T17:06:45.330Z,36.26
2022-11-02T17:08:54.877Z,36.38
2022-11-02T17:10:58.053Z,36.32
2022-11-02T17:13:00.001Z,36.29
2022-11-02T17:15:14.883Z,36.20
2022-11-02T17:17:22.334Z,36.34
2022-11-02T17:19:39.589Z,36.32
2022-11-02T17:21:44.356Z,35.95
2022-11-02T17:23:47.435Z,36.20
2022-11-02T17:25:49.243Z,36.34
2022-11-02T17:27:53.057Z,36.26
2022-11-02T17:29:54.931Z,36.48
2022-11-02T17:32:00.511Z,36.18
2022-11-02T17:34:10.155Z,35.93
2022-11-02T17:36:11.867Z,36.10
2022-11-02T17:38:13.579Z,36.04
2022-11-02T17:40:15.214Z,36.00
2022-11-02T17:42:35.684Z,35.84
2022-11-02T17:44:37.300Z,35.99
2022-11-02T17:46:41.673Z,35.81
2022-11-02T17:48:46.388Z,35.68
2022-11-02T17:50:48.152Z,35.40
2022-11-02T17:52:50.801Z,35.56
2022-11-02T17:54:52.391Z,35.43
2022-11-02T17:56:53.976Z,35.57
2022-11-02T17:58:55.589Z,35.60
2022-11-02T18:00:57.754Z,35.59
2022-11-02T18:02:59.622Z,35.28
2022-11-02T18:05:01.166Z,35.68
2022-11-02T18:07:02.774Z,35.64
2022-11-02T18:09:19.446Z,35.60
2022-11-02T18:11:26.063Z,36.07
2022-11-02T18:13:28.171Z,36.05
2022-11-02T18:15:31.648Z,35.83
2022-11-02T18:17:35.009Z,36.14
2022-11-02T18:19:36.793Z,36.30
2022-11-02T18:21:38.640Z,36.48
2022-11-02T18:23:41.106Z,36.55
2022-11-02T18:25:42.862Z,36.63
2022-11-02T18:27:45.812Z,36.84
2022-11-02T18:29:47.395Z,36.86
2022-11-02T18:31:50.084Z,37.11
2022-11-02T18:33:52.983Z,36.98
2022-11-02T18:36:02.232Z,37.12
2022-11-02T18:38:04.340Z,37.14
2022-11-02T18:40:07.565Z,37.06
2022-11-02T18:42:09.134Z,37.06
2022-11-02T18:44:15.294Z,37.15
2022-11-02T18:46:17.312Z,37.26
2022-11-02T18:48:18.884Z,37.41
2022-11-02T18:50:20.500Z,37.28
2022-11-02T18:52:22.627Z,37.49
2022-11-02T18:54:24.291Z,37.27
2022-11-02T18:56:26.525Z,37.46
2022-11-02T18:58:28.093Z,37.62
2022-11-02T19:00:29.679Z,37.42
2022-11-02T19:02:31.307Z,37.80
2022-11-02T19:04:33.634Z,37.61
2022-11-02T19:06:53.462Z,37.62
2022-11-02T19:09:13.333Z,37.64
2022-11-02T19:11:14.935Z,37.83
2022-11-02T19:13:16.721Z,37.79
2022-11-02T19:15:18.318Z,37.83
2022-11-02T19:17:21.771Z,38.24
2022-11-02T19:19:23.580Z,38.31
2022-11-02T19:21:25.499Z,38.35
2022-11-02T19:23:27.070Z,38.19
2022-11-02T19:25:28.687Z,38.49
2022-11-02T19:27:30.326Z,38.70
2022-11-02T19:29:31.994Z,38.77
2022-11-02T19:31:34.484Z,38.83
2022-11-02T19:33:36.153Z,38.87
2022-11-02T19:35:37.704Z,38.68
2022-11-02T19:37:39.241Z,38.87
2022-11-02T19:39:41.205Z,38.74
2022-11-02T19:41:42.815Z,38.79
2022-11-02T19:43:45.460Z,38.71
2022-11-02T19:45:47.070Z,38.57
2022-11-02T19:47:50.166Z,38.61
2022-11-02T19:49:51.739Z,38.58
2022-11-02T19:51:53.411Z,38.55
2022-11-02T19:53:58.134Z,38.23
2022-11-02T19:55:59.771Z,38.45
2022-11-02T19:58:01.444Z,38.35
2022-11-02T20:00:03.617Z,38.24
2022-11-02T20:02:05.201Z,38.12
2022-11-02T20:04:07.231Z,38.09
2022-11-02T20:06:15.327Z,38.28
2022-11-02T20:08:17.123Z,38.25
2022-11-02T20:10:18.829Z,38.19
2022-11-02T20:12:20.458Z,38.12
2022-11-02T20:14:22.058Z,38.19
2022-11-02T20:16:23.769Z,38.05
2022-11-02T20:18:25.802Z,38.15
2022-11-02T20:20:28.055Z,38.06
2022-11-02T20:22:29.681Z,38.21
2022-11-02T20:24:31.294Z,38.24
2022-11-02T20:26:34.968Z,38.13
2022-11-02T20:28:37.401Z,38.04
2022-11-02T20:30:42.697Z,37.75
2022-11-02T20:32:44.284Z,37.96
2022-11-02T20:34:46.440Z,38.05
2022-11-02T20:36:48.120Z,37.95
2022-11-02T20:38:51.650Z,38.08
2022-11-02T20:40:53.264Z,37.83
2022-11-02T20:42:55.108Z,37.96
2022-11-02T20:44:57.240Z,37.91
2022-11-02T20:46:58.793Z,37.76
2022-11-02T20:49:08.592Z,37.94
2022-11-02T20:51:23.068Z,37.95
2022-11-02T20:53:25.458Z,37.79
2022-11-02T20:55:27.341Z,37.83
2022-11-02T20:57:29.316Z,37.57
2022-11-02T20:59:30.890Z,37.71
2022-11-02T21:01:32.570Z,37.63
2022-11-02T21:03:34.773Z,37.75
2022-11-02T21:05:36.392Z,37.48
2022-11-02T21:07:38.035Z,37.61
2022-11-02T21:09:39.702Z,37.55
2022-11-02T21:11:59.698Z,37.29
2022-11-02T21:14:01.423Z,37.10
2022-11-02T21:16:03.695Z,37.04
2022-11-02T21:18:05.396Z,36.79
2022-11-02T21:22:31.047Z,36.68
2022-11-02T21:24:32.773Z,36.65
2022-11-02T21:26:34.312Z,36.58
2022-11-02T21:30:44.050Z,35.95
2022-11-02T21:32:45.974Z,35.81
2022-11-02T21:34:47.574Z,36.09
2022-11-02T21:36:49.240Z,35.90
2022-11-02T21:38:50.980Z,35.99
2022-11-02T21:40:53.005Z,35.73
2022-11-02T21:42:54.628Z,35.86
2022-11-02T21:44:56.292Z,35.32
2022-11-02T21:46:57.854Z,35.41
2022-11-02T21:48:59.445Z,35.28
2022-11-02T21:51:01.029Z,35.38
2022-11-02T21:53:03.188Z,35.29
2022-11-02T21:55:05.723Z,35.50
2022-11-02T21:57:07.341Z,35.03
2022-11-02T21:59:09.854Z,35.03
2022-11-02T22:01:39.345Z,35.12
2022-11-02T22:03:41.119Z,34.90
2022-11-02T22:05:55.472Z,34.88
2022-11-02T22:08:16.107Z,34.77
2022-11-02T22:10:17.719Z,34.96
2022-11-02T22:12:37.592Z,35.33
2022-11-02T22:14:40.291Z,35.49
2022-11-02T22:16:43.032Z,35.41
2022-11-02T22:18:45.553Z,35.92
2022-11-02T22:20:54.609Z,36.33
2022-11-02T22:22:56.195Z,36.65
2022-11-02T22:24:57.775Z,37.40
2022-11-02T22:26:59.540Z,38.57
2022-11-02T22:29:01.586Z,38.48
2022-11-02T22:31:27.781Z,38.98
2022-11-02T22:33:29.373Z,39.96
2022-11-02T22:35:31.238Z,40.22
2022-11-02T22:37:51.287Z,40.68
2022-11-02T22:39:52.824Z,41.11
2022-11-02T22:41:54.739Z,41.46
2022-11-02T22:43:58.779Z,41.72
2022-11-02T22:46:05.571Z,41.94
2022-11-02T22:48:07.322Z,42.33
2022-11-02T22:50:09.140Z,42.08
2022-11-02T22:52:10.777Z,41.68
2022-11-02T22:54:15.727Z,41.79
2022-11-02T22:56:18.905Z,41.62
2022-11-02T22:58:20.475Z,41.41
2022-11-02T23:00:22.415Z,41.56
2022-11-02T23:02:24.037Z,41.49
2022-11-02T23:04:25.675Z,40.76
2022-11-02T23:06:28.008Z,40.33
2022-11-02T23:08:29.743Z,39.61
2022-11-02T23:10:53.498Z,39.39
2022-11-02T23:12:56.243Z,38.92
2022-11-02T23:14:57.836Z,38.98
2022-11-02T23:16:59.463Z,38.87
2022-11-02T23:19:29.151Z,38.81
2022-11-02T23:21:31.099Z,38.48
2022-11-02T23:23:51.271Z,38.52
2022-11-02T23:25:56.655Z,38.68
2022-11-02T23:28:17.376Z,38.57
2022-11-02T23:30:37.750Z,38.90
2022-11-02T23:32:39.621Z,38.90
2022-11-02T23:35:01.178Z,39.35
2022-11-02T23:37:05.821Z,39.69
2022-11-02T23:39:26.398Z,39.70
2022-11-02T23:41:29.110Z,39.58
2022-11-02T23:43:30.692Z,39.53
2022-11-02T23:45:32.290Z,39.49
2022-11-02T23:47:52.473Z,39.50
2022-11-02T23:49:54.047Z,39.39
2022-11-02T23:52:13.969Z,39.49
2022-11-02T23:54:33.919Z,40.11
2022-11-02T23:56:44.465Z,40.62
2022-11-02T23:58:46.557Z,40.82
